New Mingzhou 16 — VRLS3 — position and weather

sailwx.info

Track history (hours):
 
Tides and Currents Weather Stations Pressure Air Temp Water Temp Dewpoint Dewpoint Depression Visibility Wind Speed Wind Dir Waves Ship Positions

New Mingzhou 16

Last reported at 2017-Nov-19 22:55 UTC. Time now 2017-Nov-21 21:15 UTC.
Position N 30°30' E 121°43'.

Length 143 m; draft 6.6 m.

Type: Ship (hazmat cat A). MMSI: 477224100.

Date/timePositionNaut miles runAvg speedWind from/ knotsBaromVisibWave heightAir tempDewpointWater temp
2017-Nov-19 22:55N 30°30' E 121°43'  
2017-Nov-15 21:00N 34°54' E 139°23'714.6
2017-Nov-15 20:30N 34°59' E 139°30'714.6
2017-Nov-15 20:00N 35°03' E 139°37'714.9
2017-Nov-15 19:30N 35°08' E 139°43'713.8
2017-Nov-15 19:00N 35°15' E 139°46'612.8
2017-Nov-15 18:30N 35°21' E 139°42'713.7
2017-Nov-15 18:00N 35°27' E 139°46'713.6
2017-Nov-15 17:30N 35°33' E 139°51'6 1.4
2017-Nov-15 13:23N 35°37' E 139°46'3 6.6
2017-Nov-15 13:00N 35°35' E 139°48'612.8
2017-Nov-15 12:31N 35°29' E 139°52'815.0
2017-Nov-15 12:00N 35°23' E 139°46'612.2
2017-Nov-15 11:31N 35°17' E 139°45'713.0
2017-Nov-15 11:00N 35°11' E 139°47'815.7
2017-Nov-15 10:30N 35°03' E 139°43'816.3
2017-Nov-15 10:00N 34°58' E 139°36'23513.9
2017-Nov-14 17:08N 34°01' E 134°59'216.8
2017-Nov-14 17:00N 34°03' E 134°59'917.1
2017-Nov-14 16:30N 34°12' E 134°59'917.8
2017-Nov-14 15:59N 34°21' E 135°00'816.8
2017-Nov-14 15:30N 34°26' E 135°07'816.8
2017-Nov-14 15:00N 34°32' E 135°15'816.0
2017-Nov-14 14:30N 34°37' E 135°22'3 6.8
2017-Nov-14 14:00N 34°39' E 135°26'0 0.0
2017-Nov-14 13:28N 34°39' E 135°26'0 0.0
2017-Nov-14 12:52N 34°39' E 135°26'0 0.0
2017-Nov-14 10:28N 34°39' E 135°26'0 0.0
2017-Nov-14 09:58N 34°39' E 135°26'0 0.0
2017-Nov-14 09:28N 34°39' E 135°26'0 0.0
2017-Nov-14 08:40N 34°39' E 135°26'0 0.0
2017-Nov-14 08:22N 34°39' E 135°26'0 0.0
2017-Nov-14 07:16N 34°39' E 135°26'0 0.0
2017-Nov-14 06:58N 34°39' E 135°26'0 0.0
2017-Nov-14 06:28N 34°39' E 135°26'0 0.0
2017-Nov-14 05:58N 34°39' E 135°26'0 0.0
2017-Nov-14 05:22N 34°39' E 135°26'0 0.0
2017-Nov-14 04:22N 34°39' E 135°26'0 0.1
2017-Nov-14 04:00N 34°39' E 135°26'3 5.8
2017-Nov-14 03:30N 34°38' E 135°22'611.3
2017-Nov-14 03:01N 34°39' E 135°16'2 3.3
2017-Nov-14 02:27N 34°41' E 135°16'0 0.0
2017-Nov-14 01:57N 34°41' E 135°16'0 0.0
2017-Nov-14 01:27N 34°41' E 135°16'0 0.0
2017-Nov-14 00:51N 34°41' E 135°16'0 0.0
2017-Nov-14 00:27N 34°41' E 135°16'0 0.0
2017-Nov-13 23:57N 34°41' E 135°16'0 0.0
2017-Nov-13 23:27N 34°41' E 135°16'0 0.0
2017-Nov-13 22:57N 34°41' E 135°16'0 0.0
2017-Nov-13 22:30N 34°41' E 135°16'0 0.9
2017-Nov-13 22:00N 34°40' E 135°15'  
Track history (hours):
 
Tides and Currents Weather Stations Pressure Air Temp Water Temp Dewpoint Dewpoint Depression Visibility Wind Speed Wind Dir Waves Ship Positions

New Mingzhou 16

Last reported at 2017-Nov-19 22:55 UTC. Time now 2017-Nov-21 21:15 UTC.
Position N 30°30' E 121°43'.

Length 143 m; draft 6.6 m.

Type: Ship (hazmat cat A). MMSI: 477224100.

Date/timePositionNaut miles runAvg speedWind from/ knotsBaromVisibWave heightAir tempDewpointWater temp
2017-Nov-19 22:55N 30°30' E 121°43'  
2017-Nov-15 21:00N 34°54' E 139°23'714.6
2017-Nov-15 20:30N 34°59' E 139°30'714.6
2017-Nov-15 20:00N 35°03' E 139°37'714.9
2017-Nov-15 19:30N 35°08' E 139°43'713.8
2017-Nov-15 19:00N 35°15' E 139°46'612.8
2017-Nov-15 18:30N 35°21' E 139°42'713.7
2017-Nov-15 18:00N 35°27' E 139°46'713.6
2017-Nov-15 17:30N 35°33' E 139°51'6 1.4
2017-Nov-15 13:23N 35°37' E 139°46'3 6.6
2017-Nov-15 13:00N 35°35' E 139°48'612.8
2017-Nov-15 12:31N 35°29' E 139°52'815.0
2017-Nov-15 12:00N 35°23' E 139°46'612.2
2017-Nov-15 11:31N 35°17' E 139°45'713.0
2017-Nov-15 11:00N 35°11' E 139°47'815.7
2017-Nov-15 10:30N 35°03' E 139°43'816.3
2017-Nov-15 10:00N 34°58' E 139°36'23513.9
2017-Nov-14 17:08N 34°01' E 134°59'216.8
2017-Nov-14 17:00N 34°03' E 134°59'917.1
2017-Nov-14 16:30N 34°12' E 134°59'917.8
2017-Nov-14 15:59N 34°21' E 135°00'816.8
2017-Nov-14 15:30N 34°26' E 135°07'816.8
2017-Nov-14 15:00N 34°32' E 135°15'816.0
2017-Nov-14 14:30N 34°37' E 135°22'3 6.8
2017-Nov-14 14:00N 34°39' E 135°26'0 0.0
2017-Nov-14 13:28N 34°39' E 135°26'0 0.0
2017-Nov-14 12:52N 34°39' E 135°26'0 0.0
2017-Nov-14 10:28N 34°39' E 135°26'0 0.0
2017-Nov-14 09:58N 34°39' E 135°26'0 0.0
2017-Nov-14 09:28N 34°39' E 135°26'0 0.0
2017-Nov-14 08:40N 34°39' E 135°26'0 0.0
2017-Nov-14 08:22N 34°39' E 135°26'0 0.0
2017-Nov-14 07:16N 34°39' E 135°26'0 0.0
2017-Nov-14 06:58N 34°39' E 135°26'0 0.0
2017-Nov-14 06:28N 34°39' E 135°26'0 0.0
2017-Nov-14 05:58N 34°39' E 135°26'0 0.0
2017-Nov-14 05:22N 34°39' E 135°26'0 0.0
2017-Nov-14 04:22N 34°39' E 135°26'0 0.1
2017-Nov-14 04:00N 34°39' E 135°26'3 5.8
2017-Nov-14 03:30N 34°38' E 135°22'611.3
2017-Nov-14 03:01N 34°39' E 135°16'2 3.3
2017-Nov-14 02:27N 34°41' E 135°16'0 0.0
2017-Nov-14 01:57N 34°41' E 135°16'0 0.0
2017-Nov-14 01:27N 34°41' E 135°16'0 0.0
2017-Nov-14 00:51N 34°41' E 135°16'0 0.0
2017-Nov-14 00:27N 34°41' E 135°16'0 0.0
2017-Nov-13 23:57N 34°41' E 135°16'0 0.0
2017-Nov-13 23:27N 34°41' E 135°16'0 0.0
2017-Nov-13 22:57N 34°41' E 135°16'0 0.0
2017-Nov-13 22:30N 34°41' E 135°16'0 0.9
2017-Nov-13 22:00N 34°40' E 135°15'  

Dump ship's entire track history